Terminal Aerodrome Forecast
Issued by NWS

Current Version | Previous Version | Text Only | Print | Product List | Glossary On
Versions: 1 2 3 4 5 6 7 8 9 10 11 12 13 14 15 16 17 18 19 20 21 22 23 24 25 26 27 28 29 30 31 32 33 34 35 36 37
000
FTAK31 PANC 251142
TAFADQ
TAF
PADQ 251142Z 2512/2612 VRB03KT 4SM BR SCT004 OVC025
      TEMPO 2512/2516 2SM BR BKN004
     FM251600 VRB03KT P6SM -RA BKN025
     FM252000 04006KT P6SM -RA SCT025 OVC040
     FM260800 31005KT P6SM SCT040 BKN080=

USA.gov is the U.S. government's official web portal to all federal, state and local government web resources and services.